Coosa Pines, Alabama
Current Conditions -  °F | °C
As of 8:35 PM on Tuesday 25 Nov 2014 (Local Time) from KSCD Reporting Station
Clear Clear  
Wind Chill: 51°   Ceiling: Unl
Heat Index: 51°   Visibility: 10mi
Dew Point: 33°   Wind: 0mph
Humidity: 50%   Direction: NA
Pressure: 30.12"   Gusts: NA
Location:  33.2952°N, 86.335°W
Report Text: KSCD 260235Z AUTO 00000KT 10SM CLR 11/01 A3012 RMK AO2 T01050005
Loading
Personal Weather Stations






























Interactive Weather Map New forecast layout! Learn more

10-Day Weather Forecast

Advertisements
Track Severe Weather on mobile